Time;durP1;ratioP1;P1;durP2;ratioP2;P2;SDS_P1;SDS_P2;PMS_P1;PMS_P2;Temp;Humidity;BMP_temperature;BMP_pressure;BME280_temperature;BME280_humidity;BME280_pressure;Samples;Min_cycle;Max_cycle;Signal;HPM_P1;HPM_P2
2022/04/21 00:00:07;;;;;;;13.48;6.55;;;;;;;;;;5003591;28;89727;-67
2022/04/21 00:02:33;;;;;;;9.60;6.50;;;;;;;;;;5000401;28;88699;-67
2022/04/21 00:04:59;;;;;;;12.07;6.70;;;;;;;;;;5013469;28;88740;-64
2022/04/21 00:07:26;;;;;;;8.63;7.05;;;;;;;;;;5015296;28;89487;-67
2022/04/21 00:09:52;;;;;;;12.63;6.97;;;;;;;;;;5003729;28;88822;-66
2022/04/21 00:12:18;;;;;;;13.50;7.68;;;;;;;;;;4999016;28;88033;-68
2022/04/21 00:14:44;;;;;;;9.20;6.90;;;;;;;;;;4998324;28;89752;-67
2022/04/21 00:17:11;;;;;;;9.20;6.30;;;;;;;;;;4998886;28;88652;-67
2022/04/21 00:19:37;;;;;;;15.25;6.90;;;;;;;;;;5011026;28;89025;-67
2022/04/21 00:24:49;;;;;;;10.63;7.80;;;;;;;;;;5016034;28;89015;-67
2022/04/21 00:27:16;;;;;;;15.25;7.45;;;;;;;;;;4997411;28;90068;-67
2022/04/21 00:29:43;;;;;;;14.00;7.05;;;;;;;;;;5008850;28;89906;-67
2022/04/21 00:32:10;;;;;;;10.10;7.28;;;;;;;;;;5014222;28;88170;-67
2022/04/21 00:34:37;;;;;;;7.57;6.78;;;;;;;;;;5006586;28;88902;-67
2022/04/21 00:37:03;;;;;;;11.82;6.93;;;;;;;;;;5000531;28;88590;-67
2022/04/21 00:39:31;;;;;;;11.57;7.20;;;;;;;;;;5008214;28;88768;-67
2022/04/21 00:41:58;;;;;;;8.25;6.75;;;;;;;;;;5007795;28;89413;-67
2022/04/21 00:44:25;;;;;;;8.98;6.68;;;;;;;;;;4998690;28;88693;-67
2022/04/21 00:46:52;;;;;;;12.20;6.68;;;;;;;;;;5009491;28;87410;-67
2022/04/21 00:49:19;;;;;;;17.55;7.13;;;;;;;;;;5001418;28;89162;-67
2022/04/21 00:51:45;;;;;;;13.82;7.07;;;;;;;;;;5009386;28;89084;-67
2022/04/21 00:54:12;;;;;;;12.57;7.50;;;;;;;;;;5015194;28;88669;-67
2022/04/21 00:56:39;;;;;;;10.95;7.32;;;;;;;;;;5013884;28;88822;-67
2022/04/21 00:59:06;;;;;;;11.02;6.80;;;;;;;;;;5000931;28;88703;-67
2022/04/21 01:04:18;;;;;;;12.63;7.65;;;;;;;;;;5004638;28;90053;-66
2022/04/21 01:06:44;;;;;;;12.80;8.02;;;;;;;;;;5007696;28;88926;-68
2022/04/21 01:09:11;;;;;;;12.38;6.78;;;;;;;;;;5008297;28;89036;-67
2022/04/21 01:11:38;;;;;;;10.88;7.32;;;;;;;;;;5013314;28;87358;-67
2022/04/21 01:14:05;;;;;;;17.40;7.43;;;;;;;;;;4997764;28;88085;-67
2022/04/21 01:16:31;;;;;;;7.72;6.60;;;;;;;;;;5003621;28;89662;-67
2022/04/21 01:18:58;;;;;;;12.23;7.28;;;;;;;;;;4995909;28;90024;-67
2022/04/21 01:21:24;;;;;;;10.50;7.25;;;;;;;;;;5005615;28;89349;-67
2022/04/21 01:23:50;;;;;;;14.00;7.05;;;;;;;;;;5010856;28;89364;-67
2022/04/21 01:26:17;;;;;;;9.40;7.13;;;;;;;;;;5000085;28;88145;-68
2022/04/21 01:28:45;;;;;;;13.68;7.22;;;;;;;;;;5017626;28;88802;-67
2022/04/21 01:31:11;;;;;;;10.98;7.53;;;;;;;;;;5002083;28;88105;-67
2022/04/21 01:33:38;;;;;;;15.25;7.45;;;;;;;;;;5008404;28;89786;-67
2022/04/21 01:36:04;;;;;;;11.05;7.32;;;;;;;;;;5007493;28;88308;-67
2022/04/21 01:41:16;;;;;;;12.38;8.00;;;;;;;;;;5007649;28;88099;-67
2022/04/21 01:43:43;;;;;;;15.80;8.25;;;;;;;;;;5001345;28;89618;-66
2022/04/21 01:46:10;;;;;;;15.32;8.20;;;;;;;;;;5010252;28;89496;-67
2022/04/21 01:48:37;;;;;;;14.88;7.65;;;;;;;;;;4997139;28;88773;-67
2022/04/21 01:51:03;;;;;;;17.15;7.95;;;;;;;;;;5010694;28;88549;-67
2022/04/21 01:53:29;;;;;;;9.45;7.35;;;;;;;;;;5005613;28;89974;-68
2022/04/21 01:55:55;;;;;;;11.57;7.18;;;;;;;;;;5005015;28;88925;-67
2022/04/21 01:58:21;;;;;;;13.57;7.05;;;;;;;;;;4997477;28;88753;-67
2022/04/21 02:00:48;;;;;;;12.48;7.00;;;;;;;;;;5005392;28;87471;-67
2022/04/21 02:03:14;;;;;;;13.75;7.25;;;;;;;;;;5018231;28;87894;-67
2022/04/21 02:05:40;;;;;;;10.77;7.30;;;;;;;;;;4999157;28;88170;-67
2022/04/21 02:08:07;;;;;;;14.20;7.05;;;;;;;;;;5001810;28;89797;-67
2022/04/21 02:10:33;;;;;;;12.32;6.70;;;;;;;;;;5000115;28;88714;-67
2022/04/21 02:13:00;;;;;;;15.98;6.85;;;;;;;;;;5006665;28;88030;-67
2022/04/21 02:15:26;;;;;;;11.65;8.20;;;;;;;;;;5008045;28;88821;-67
2022/04/21 02:17:52;;;;;;;10.60;7.47;;;;;;;;;;5009041;28;88177;-67
2022/04/21 02:20:20;;;;;;;10.55;7.20;;;;;;;;;;5000684;28;88849;-67
2022/04/21 02:22:47;;;;;;;10.20;6.00;;;;;;;;;;5011540;28;88690;-67
2022/04/21 02:25:14;;;;;;;12.25;6.93;;;;;;;;;;5001442;28;87715;-67
2022/04/21 02:27:44;;;;;;;8.60;6.43;;;;;;;;;;5016283;28;88778;-67
2022/04/21 02:30:13;;;;;;;11.77;6.47;;;;;;;;;;5012699;28;89329;-67
2022/04/21 02:32:40;;;;;;;10.40;7.35;;;;;;;;;;5009804;28;88844;-67
2022/04/21 02:35:09;;;;;;;8.85;6.32;;;;;;;;;;5008833;28;89383;-67
2022/04/21 02:37:39;;;;;;;14.57;7.05;;;;;;;;;;5014877;28;88024;-67
2022/04/21 02:40:06;;;;;;;9.77;7.10;;;;;;;;;;5011296;28;89006;-67
2022/04/21 02:42:33;;;;;;;12.23;6.88;;;;;;;;;;5009721;28;89005;-68
2022/04/21 02:44:59;;;;;;;10.57;7.00;;;;;;;;;;5011066;28;88018;-67
2022/04/21 02:47:25;;;;;;;10.77;6.60;;;;;;;;;;4997278;28;89212;-68
2022/04/21 02:49:52;;;;;;;12.52;7.22;;;;;;;;;;5003635;28;89497;-67
2022/04/21 02:52:19;;;;;;;14.48;7.30;;;;;;;;;;4998970;28;89571;-67
2022/04/21 02:57:30;;;;;;;13.98;7.32;;;;;;;;;;5004771;28;88864;-67
2022/04/21 02:59:57;;;;;;;10.27;6.97;;;;;;;;;;4996842;28;89555;-67
2022/04/21 03:02:24;;;;;;;7.82;6.97;;;;;;;;;;4999867;28;89417;-67
2022/04/21 03:04:52;;;;;;;10.48;6.63;;;;;;;;;;5008058;28;89070;-68
2022/04/21 03:07:20;;;;;;;8.75;6.65;;;;;;;;;;5015067;28;88900;-67
2022/04/21 03:09:47;;;;;;;8.77;6.93;;;;;;;;;;5008718;28;90102;-67
2022/04/21 03:12:13;;;;;;;8.20;6.68;;;;;;;;;;5007183;28;88017;-67
2022/04/21 03:14:40;;;;;;;10.60;6.57;;;;;;;;;;5009703;28;88821;-68
2022/04/21 03:17:09;;;;;;;9.40;6.80;;;;;;;;;;5016004;28;88927;-65
2022/04/21 03:19:37;;;;;;;11.60;6.50;;;;;;;;;;4998629;28;88631;-67
2022/04/21 03:24:48;;;;;;;8.50;6.80;;;;;;;;;;5000044;28;88143;-67
2022/04/21 03:27:15;;;;;;;11.50;6.82;;;;;;;;;;5012854;28;88611;-68
2022/04/21 03:29:41;;;;;;;9.98;6.63;;;;;;;;;;5001606;28;88853;-68
2022/04/21 03:32:13;;;;;;;7.85;6.88;;;;;;;;;;5009770;28;88977;-67
2022/04/21 03:34:43;;;;;;;10.82;6.50;;;;;;;;;;5000209;28;88745;-67
2022/04/21 03:37:10;;;;;;;8.60;6.03;;;;;;;;;;5015935;28;89473;-67
2022/04/21 03:39:37;;;;;;;10.50;7.40;;;;;;;;;;5013541;28;88730;-66
2022/04/21 03:42:04;;;;;;;14.25;6.80;;;;;;;;;;5011110;28;89106;-68
2022/04/21 03:44:30;;;;;;;12.60;7.00;;;;;;;;;;5011240;28;89314;-67
2022/04/21 03:46:58;;;;;;;16.45;7.30;;;;;;;;;;5001791;28;88781;-67
2022/04/21 03:49:27;;;;;;;14.70;7.38;;;;;;;;;;5003221;28;88852;-67
2022/04/21 03:51:54;;;;;;;10.03;7.10;;;;;;;;;;5010854;28;88043;-67
2022/04/21 03:54:22;;;;;;;9.70;7.35;;;;;;;;;;4997094;28;90142;-67
2022/04/21 03:56:49;;;;;;;9.00;6.50;;;;;;;;;;5011362;28;88826;-67
2022/04/21 03:59:17;;;;;;;13.20;7.22;;;;;;;;;;5011719;28;88100;-67
2022/04/21 04:01:43;;;;;;;7.75;6.43;;;;;;;;;;5015471;28;88684;-67
2022/04/21 04:04:10;;;;;;;10.38;6.60;;;;;;;;;;5016784;28;88599;-67
2022/04/21 04:12:06;;;;;;;14.48;6.63;;;;;;;;;;5001222;28;90586;-67
2022/04/21 04:14:33;;;;;;;10.00;7.03;;;;;;;;;;4998818;28;89618;-66
2022/04/21 04:16:59;;;;;;;15.32;7.18;;;;;;;;;;5000701;28;90021;-68
2022/04/21 04:19:25;;;;;;;11.70;7.45;;;;;;;;;;5007880;28;88659;-67
2022/04/21 04:21:52;;;;;;;13.30;7.38;;;;;;;;;;5005866;28;89616;-67
2022/04/21 04:24:18;;;;;;;13.27;6.97;;;;;;;;;;5004881;28;87873;-67
2022/04/21 04:26:44;;;;;;;9.70;7.93;;;;;;;;;;5000192;28;88827;-68
2022/04/21 04:29:11;;;;;;;11.27;7.00;;;;;;;;;;5006305;28;88966;-67
2022/04/21 04:31:40;;;;;;;10.65;7.15;;;;;;;;;;5003886;28;88083;-67
2022/04/21 04:34:08;;;;;;;12.25;6.75;;;;;;;;;;5002569;28;88866;-67
2022/04/21 04:36:34;;;;;;;14.90;8.40;;;;;;;;;;5007854;28;89565;-67
2022/04/21 04:39:00;;;;;;;14.00;7.22;;;;;;;;;;5017718;28;87914;-67
2022/04/21 04:44:11;;;;;;;13.50;7.68;;;;;;;;;;4997441;28;89967;-67
2022/04/21 04:46:38;;;;;;;8.40;6.63;;;;;;;;;;5005734;28;88718;-67
2022/04/21 04:49:06;;;;;;;11.95;6.95;;;;;;;;;;4999213;28;89833;-66
2022/04/21 04:51:33;;;;;;;11.73;6.75;;;;;;;;;;5002019;28;88809;-66
2022/04/21 04:53:59;;;;;;;19.65;7.75;;;;;;;;;;5017484;28;88613;-67
2022/04/21 04:56:27;;;;;;;18.77;8.13;;;;;;;;;;5007117;28;88816;-67
2022/04/21 04:58:53;;;;;;;12.38;7.53;;;;;;;;;;4998207;28;88921;-66
2022/04/21 05:01:26;;;;;;;11.85;8.35;;;;;;;;;;5009275;28;89598;-66
2022/04/21 05:04:06;;;;;;;14.48;7.95;;;;;;;;;;5017500;28;88079;-66
2022/04/21 05:06:35;;;;;;;9.75;7.35;;;;;;;;;;5006169;28;88067;-67
2022/04/21 05:09:02;;;;;;;12.80;7.85;;;;;;;;;;5001444;28;90282;-66
2022/04/21 05:11:29;;;;;;;12.40;7.55;;;;;;;;;;5003730;28;88072;-66
2022/04/21 05:13:55;;;;;;;14.32;7.60;;;;;;;;;;5008443;28;89636;-67
2022/04/21 05:16:21;;;;;;;8.98;6.90;;;;;;;;;;5004530;28;89879;-66
2022/04/21 05:18:48;;;;;;;13.50;8.13;;;;;;;;;;5009634;28;88903;-67
2022/04/21 05:21:16;;;;;;;19.10;7.88;;;;;;;;;;5010784;28;87963;-66
2022/04/21 05:23:44;;;;;;;9.38;7.40;;;;;;;;;;5017441;28;89228;-65
2022/04/21 05:26:11;;;;;;;9.88;7.20;;;;;;;;;;5003893;28;89737;-66
2022/04/21 05:28:37;;;;;;;11.65;7.60;;;;;;;;;;5010872;28;90604;-67
2022/04/21 05:31:07;;;;;;;20.58;8.00;;;;;;;;;;5005683;28;89779;-66
2022/04/21 05:33:35;;;;;;;23.50;7.63;;;;;;;;;;5010128;28;88001;-67
2022/04/21 05:36:01;;;;;;;14.38;8.52;;;;;;;;;;5009439;28;89824;-67
2022/04/21 05:38:28;;;;;;;14.45;7.07;;;;;;;;;;5012334;28;88023;-67
2022/04/21 05:40:55;;;;;;;15.05;7.40;;;;;;;;;;5001584;28;88886;-66
2022/04/21 05:43:23;;;;;;;34.25;7.88;;;;;;;;;;5000085;28;88348;-67
2022/04/21 05:45:49;;;;;;;17.45;7.82;;;;;;;;;;5001995;28;88563;-66
2022/04/21 05:48:16;;;;;;;24.73;6.90;;;;;;;;;;5001608;28;88431;-66
2022/04/21 05:50:44;;;;;;;15.95;7.68;;;;;;;;;;5004159;28;90479;-66
2022/04/21 05:53:11;;;;;;;17.25;7.68;;;;;;;;;;5017832;28;89686;-65
2022/04/21 05:55:38;;;;;;;12.93;7.32;;;;;;;;;;5009841;28;89055;-67
2022/04/21 05:58:04;;;;;;;13.45;7.18;;;;;;;;;;5014671;28;88855;-66
2022/04/21 06:00:30;;;;;;;17.42;7.47;;;;;;;;;;5004400;28;88589;-67
2022/04/21 06:02:57;;;;;;;9.65;6.97;;;;;;;;;;5002760;28;89732;-68
2022/04/21 06:05:24;;;;;;;11.75;6.97;;;;;;;;;;4996833;28;88428;-68
2022/04/21 06:07:50;;;;;;;11.15;6.70;;;;;;;;;;4997596;28;89607;-67
2022/04/21 06:10:16;;;;;;;16.38;6.72;;;;;;;;;;4996063;28;89175;-69
2022/04/21 06:12:43;;;;;;;11.80;6.55;;;;;;;;;;5000610;28;88844;-68
2022/04/21 06:15:09;;;;;;;11.50;6.47;;;;;;;;;;5002836;28;90338;-68
2022/04/21 06:17:36;;;;;;;14.25;6.30;;;;;;;;;;5017007;28;87950;-67
2022/04/21 06:20:02;;;;;;;9.07;6.05;;;;;;;;;;5009274;28;88875;-67
2022/04/21 06:22:28;;;;;;;9.70;6.35;;;;;;;;;;4999199;28;90082;-67
2022/04/21 06:24:54;;;;;;;7.97;6.72;;;;;;;;;;4999047;28;88126;-66
2022/04/21 06:27:21;;;;;;;24.85;7.63;;;;;;;;;;5016619;28;89514;-67
2022/04/21 06:29:47;;;;;;;14.02;7.05;;;;;;;;;;5016165;28;89933;-67
2022/04/21 06:32:13;;;;;;;9.13;6.25;;;;;;;;;;5003440;28;87481;-67
2022/04/21 06:34:40;;;;;;;9.55;6.15;;;;;;;;;;5000545;28;88468;-67
2022/04/21 06:37:06;;;;;;;8.27;6.30;;;;;;;;;;4997719;28;88025;-67
2022/04/21 06:39:32;;;;;;;20.85;7.13;;;;;;;;;;4997282;28;88701;-67
2022/04/21 06:41:59;;;;;;;7.35;6.20;;;;;;;;;;4998105;28;89473;-67
2022/04/21 06:49:55;;;;;;;13.27;6.30;;;;;;;;;;4999336;28;89874;-68
2022/04/21 06:52:22;;;;;;;13.52;6.10;;;;;;;;;;4999561;28;88169;-68
2022/04/21 06:54:48;;;;;;;16.42;5.60;;;;;;;;;;5009458;28;88657;-70
2022/04/21 06:57:14;;;;;;;13.50;6.10;;;;;;;;;;5000723;28;88776;-68
2022/04/21 06:59:40;;;;;;;8.77;5.65;;;;;;;;;;4998490;28;88285;-68
2022/04/21 07:02:09;;;;;;;17.08;5.63;;;;;;;;;;4997413;28;91452;-66
2022/04/21 07:04:35;;;;;;;7.07;5.25;;;;;;;;;;4996611;28;88799;-67
2022/04/21 07:07:02;;;;;;;9.57;5.22;;;;;;;;;;4996919;28;89472;-67
2022/04/21 07:09:28;;;;;;;12.65;5.38;;;;;;;;;;5010509;28;89068;-66
2022/04/21 07:11:55;;;;;;;12.95;5.63;;;;;;;;;;4998929;28;88601;-68
2022/04/21 07:14:21;;;;;;;12.50;5.63;;;;;;;;;;5006721;28;88922;-67
2022/04/21 07:16:47;;;;;;;9.50;5.63;;;;;;;;;;5013136;28;89139;-67
2022/04/21 07:19:14;;;;;;;8.63;5.47;;;;;;;;;;5007682;28;90132;-67
2022/04/21 07:21:40;;;;;;;12.82;5.07;;;;;;;;;;5016125;28;87479;-66
2022/04/21 07:24:06;;;;;;;12.35;4.97;;;;;;;;;;4997115;28;88362;-66
2022/04/21 07:26:32;;;;;;;13.40;5.85;;;;;;;;;;4996771;28;88834;-67
2022/04/21 07:28:59;;;;;;;9.90;5.60;;;;;;;;;;4999463;28;89747;-67
2022/04/21 07:31:25;;;;;;;11.18;5.57;;;;;;;;;;5000186;28;87996;-67
2022/04/21 07:33:52;;;;;;;8.43;5.25;;;;;;;;;;5000424;28;88780;-67
2022/04/21 07:36:18;;;;;;;13.65;5.60;;;;;;;;;;4999863;28;88111;-65
2022/04/21 07:38:46;;;;;;;10.35;5.13;;;;;;;;;;5018755;28;87970;-67
2022/04/21 07:41:13;;;;;;;9.02;5.47;;;;;;;;;;5000248;28;88406;-66
2022/04/21 07:43:42;;;;;;;6.80;5.40;;;;;;;;;;4999661;28;88478;-67
2022/04/21 07:46:09;;;;;;;10.27;5.00;;;;;;;;;;5011840;28;89844;-67
2022/04/21 07:51:21;;;;;;;12.15;5.22;;;;;;;;;;5020637;28;88976;-68
2022/04/21 07:53:47;;;;;;;8.18;5.22;;;;;;;;;;5014781;28;88860;-66
2022/04/21 07:56:17;;;;;;;12.90;5.53;;;;;;;;;;5003290;28;88863;-67
2022/04/21 07:58:43;;;;;;;7.65;5.57;;;;;;;;;;5000031;28;88023;-67
2022/04/21 08:01:09;;;;;;;8.45;5.25;;;;;;;;;;5009140;28;89806;-66
2022/04/21 08:03:37;;;;;;;6.35;4.75;;;;;;;;;;5013573;28;88138;-66
2022/04/21 08:06:04;;;;;;;6.32;4.90;;;;;;;;;;5019973;28;89835;-68
2022/04/21 08:08:30;;;;;;;10.07;4.43;;;;;;;;;;4996906;28;94447;-68
2022/04/21 08:10:56;;;;;;;12.52;4.93;;;;;;;;;;4996060;28;91761;-68
2022/04/21 08:13:24;;;;;;;22.08;4.85;;;;;;;;;;4996012;28;92668;-66
2022/04/21 08:15:53;;;;;;;10.82;4.70;;;;;;;;;;4999903;28;92995;-68
2022/04/21 08:18:19;;;;;;;6.00;4.20;;;;;;;;;;5010292;28;95226;-67
2022/04/21 08:20:46;;;;;;;11.38;4.45;;;;;;;;;;5017105;28;95433;-67
2022/04/21 08:23:13;;;;;;;7.43;3.92;;;;;;;;;;5009992;28;94282;-66
2022/04/21 08:34:23;;;;;;;9.88;3.95;;;;;;;;;;5009869;28;93347;-67
2022/04/21 08:36:52;;;;;;;8.73;4.03;;;;;;;;;;5000175;28;92605;-67
2022/04/21 08:39:20;;;;;;;11.27;4.07;;;;;;;;;;5004118;28;94011;-66
2022/04/21 08:41:47;;;;;;;6.88;3.72;;;;;;;;;;5015734;28;93104;-67
2022/04/21 08:44:17;;;;;;;5.07;3.20;;;;;;;;;;5014268;28;95912;-67
2022/04/21 08:46:45;;;;;;;7.22;3.10;;;;;;;;;;5003691;28;92706;-67
2022/04/21 08:49:12;;;;;;;6.35;3.00;;;;;;;;;;5011367;28;93492;-66
2022/04/21 08:51:39;;;;;;;3.85;2.75;;;;;;;;;;5016432;28;92444;-66
2022/04/21 08:54:06;;;;;;;4.78;2.90;;;;;;;;;;5011812;28;93438;-67
2022/04/21 08:56:32;;;;;;;11.80;2.80;;;;;;;;;;5012442;28;93259;-67
2022/04/21 08:58:58;;;;;;;3.60;2.45;;;;;;;;;;5012247;28;92585;-67
2022/04/21 09:01:25;;;;;;;4.03;2.83;;;;;;;;;;5002742;28;94184;-67
2022/04/21 09:03:51;;;;;;;3.58;2.60;;;;;;;;;;4996137;28;93386;-67
2022/04/21 09:06:21;;;;;;;5.15;2.30;;;;;;;;;;5010456;28;92869;-67
2022/04/21 09:08:48;;;;;;;2.83;2.17;;;;;;;;;;5017507;28;95052;-67
2022/04/21 09:11:15;;;;;;;4.95;2.10;;;;;;;;;;5016469;28;92562;-67
2022/04/21 09:13:42;;;;;;;5.57;2.80;;;;;;;;;;5008072;28;93313;-67
2022/04/21 09:16:10;;;;;;;5.47;2.42;;;;;;;;;;5009564;28;93454;-67
2022/04/21 09:18:37;;;;;;;2.30;2.10;;;;;;;;;;5006868;28;92488;-67
2022/04/21 09:21:07;;;;;;;4.60;2.22;;;;;;;;;;5015788;28;93715;-67
2022/04/21 09:23:33;;;;;;;2.40;2.20;;;;;;;;;;5013648;28;93440;-67
2022/04/21 09:26:06;;;;;;;7.13;2.70;;;;;;;;;;5007740;28;91697;-67
2022/04/21 09:28:33;;;;;;;9.13;2.53;;;;;;;;;;5000138;28;92540;-67
2022/04/21 09:31:00;;;;;;;3.42;2.50;;;;;;;;;;4995637;28;92597;-67
2022/04/21 09:33:26;;;;;;;4.63;2.30;;;;;;;;;;4993695;28;95190;-67
2022/04/21 09:35:55;;;;;;;5.22;2.67;;;;;;;;;;4995329;28;93271;-67
2022/04/21 09:38:22;;;;;;;4.95;2.97;;;;;;;;;;5004177;28;92721;-67
2022/04/21 09:40:49;;;;;;;5.30;2.70;;;;;;;;;;4995124;28;93837;-66
2022/04/21 09:43:25;;;;;;;3.28;2.75;;;;;;;;;;4993031;28;93278;-68
2022/04/21 09:46:09;;;;;;;2.72;2.53;;;;;;;;;;4996099;28;93044;-67
2022/04/21 09:48:36;;;;;;;2.60;2.40;;;;;;;;;;5004525;28;94380;-67
2022/04/21 09:51:15;;;;;;;6.18;3.22;;;;;;;;;;4997069;28;92036;-67
2022/04/21 09:53:50;;;;;;;3.88;2.50;;;;;;;;;;4994993;28;92400;-67
2022/04/21 09:56:17;;;;;;;6.63;2.38;;;;;;;;;;5002249;28;93607;-68
2022/04/21 09:58:45;;;;;;;6.40;2.80;;;;;;;;;;4992792;28;96657;-67
2022/04/21 10:01:12;;;;;;;3.78;2.30;;;;;;;;;;4998864;28;96767;-67
2022/04/21 10:03:41;;;;;;;8.27;2.25;;;;;;;;;;5015113;28;93256;-67
2022/04/21 10:06:07;;;;;;;3.80;2.75;;;;;;;;;;5010875;28;92540;-67
2022/04/21 10:08:34;;;;;;;2.22;2.00;;;;;;;;;;5005217;28;92513;-67
2022/04/21 10:11:01;;;;;;;4.47;2.53;;;;;;;;;;5004015;28;93519;-67
2022/04/21 10:13:29;;;;;;;4.97;2.80;;;;;;;;;;5017397;28;92473;-67
2022/04/21 10:15:56;;;;;;;8.45;2.22;;;;;;;;;;5008810;28;93698;-67
2022/04/21 10:18:24;;;;;;;11.25;2.00;;;;;;;;;;4997656;28;92808;-67
2022/04/21 10:20:52;;;;;;;6.35;2.55;;;;;;;;;;5014485;28;94522;-67
2022/04/21 10:23:19;;;;;;;2.33;1.80;;;;;;;;;;4999777;28;96076;-68
2022/04/21 10:25:45;;;;;;;5.93;1.85;;;;;;;;;;4995841;28;92460;-68
2022/04/21 10:28:30;;;;;;;8.85;2.30;;;;;;;;;;4995012;28;94240;-67
2022/04/21 10:30:56;;;;;;;7.07;2.10;;;;;;;;;;5002894;28;93207;-67
2022/04/21 10:33:41;;;;;;;7.38;2.15;;;;;;;;;;5008042;28;92884;-67
2022/04/21 10:36:08;;;;;;;5.07;2.25;;;;;;;;;;5002085;28;94128;-67
2022/04/21 10:38:34;;;;;;;3.38;2.08;;;;;;;;;;5002220;28;92414;-67
2022/04/21 10:41:07;;;;;;;4.53;2.22;;;;;;;;;;4995543;28;91952;-68
2022/04/21 10:43:49;;;;;;;3.95;1.90;;;;;;;;;;5006596;28;92764;-67
2022/04/21 10:46:19;;;;;;;2.92;2.15;;;;;;;;;;4995762;28;92463;-68
2022/04/21 10:48:45;;;;;;;7.00;2.00;;;;;;;;;;4993114;28;94943;-67
2022/04/21 10:51:12;;;;;;;6.43;2.35;;;;;;;;;;4994482;28;93476;-67
2022/04/21 10:59:29;;;;;;;5.47;2.17;;;;;;;;;;4996831;28;94506;-65
2022/04/21 11:01:55;;;;;;;8.30;2.22;;;;;;;;;;5008423;28;93294;-66
2022/04/21 11:04:23;;;;;;;4.32;2.22;;;;;;;;;;4995423;28;93195;-66
2022/04/21 11:07:04;;;;;;;4.05;2.08;;;;;;;;;;4994167;28;91877;-66
2022/04/21 11:09:38;;;;;;;6.07;1.98;;;;;;;;;;5003601;28;92677;-65
2022/04/21 11:12:46;;;;;;;5.28;2.00;;;;;;;;;;5011862;28;95021;-65
2022/04/21 11:15:28;;;;;;;6.75;1.77;;;;;;;;;;4997655;28;97082;-66
2022/04/21 11:18:21;;;;;;;14.02;1.70;;;;;;;;;;4991769;28;96213;-66
2022/04/21 11:20:48;;;;;;;4.25;1.77;;;;;;;;;;4992562;28;93838;-66
2022/04/21 11:23:30;;;;;;;4.60;1.70;;;;;;;;;;5000995;28;93326;-66
2022/04/21 11:26:03;;;;;;;4.55;1.80;;;;;;;;;;5010861;28;94015;-66
2022/04/21 11:28:29;;;;;;;6.88;1.92;;;;;;;;;;5005498;28;93122;-66
2022/04/21 11:30:57;;;;;;;4.65;1.90;;;;;;;;;;5013239;28;94060;-66
2022/04/21 11:33:23;;;;;;;2.75;2.05;;;;;;;;;;5013436;28;93539;-66
2022/04/21 11:35:49;;;;;;;9.52;2.13;;;;;;;;;;4993379;28;93523;-66
2022/04/21 11:38:16;;;;;;;8.75;2.72;;;;;;;;;;4998226;28;94121;-66
2022/04/21 11:40:44;;;;;;;4.05;1.80;;;;;;;;;;4991377;28;97866;-67
2022/04/21 11:43:10;;;;;;;3.87;1.90;;;;;;;;;;5006943;28;93468;-66
2022/04/21 11:45:40;;;;;;;3.17;1.90;;;;;;;;;;5009725;28;95312;-66
2022/04/21 11:48:14;;;;;;;5.22;1.85;;;;;;;;;;4997989;28;93801;-67
2022/04/21 11:50:44;;;;;;;5.78;1.73;;;;;;;;;;5012960;28;94035;-66
2022/04/21 11:53:12;;;;;;;2.05;1.73;;;;;;;;;;5012891;28;93982;-66
2022/04/21 11:55:38;;;;;;;5.18;1.95;;;;;;;;;;5003413;28;93307;-65
2022/04/21 11:58:10;;;;;;;4.97;2.20;;;;;;;;;;5011607;28;93409;-66
2022/04/21 12:06:38;;;;;;;2.95;1.80;;;;;;;;;;4938751;28;95102;-65
2022/04/21 12:09:05;;;;;;;2.35;2.10;;;;;;;;;;4951021;28;92427;-66
2022/04/21 12:11:33;;;;;;;3.22;1.88;;;;;;;;;;4948254;28;92968;-66
2022/04/21 12:13:59;;;;;;;5.97;1.88;;;;;;;;;;4949561;28;93655;-66
2022/04/21 12:16:40;;;;;;;4.68;1.95;;;;;;;;;;4952260;28;93199;-66
2022/04/21 12:19:14;;;;;;;8.32;2.15;;;;;;;;;;4955232;28;94262;-67
2022/04/21 12:21:40;;;;;;;3.15;1.70;;;;;;;;;;4953717;28;93711;-66
2022/04/21 12:24:16;;;;;;;4.60;1.70;;;;;;;;;;4954697;28;92258;-66
2022/04/21 12:26:49;;;;;;;7.03;1.58;;;;;;;;;;4953830;28;94342;-66
2022/04/21 12:29:15;;;;;;;2.63;1.65;;;;;;;;;;4954608;28;94573;-66
2022/04/21 12:31:52;;;;;;;6.32;1.95;;;;;;;;;;4952024;28;95023;-67
2022/04/21 12:34:26;;;;;;;2.72;1.92;;;;;;;;;;4954731;28;93161;-66
2022/04/21 12:36:56;;;;;;;7.97;1.77;;;;;;;;;;4953060;28;92802;-66
2022/04/21 12:39:23;;;;;;;3.90;1.75;;;;;;;;;;4964643;28;93198;-66
2022/04/21 12:42:09;;;;;;;2.35;1.83;;;;;;;;;;4983553;28;93506;-66
2022/04/21 12:44:36;;;;;;;4.32;1.80;;;;;;;;;;4999515;28;94208;-66
2022/04/21 12:47:04;;;;;;;4.38;2.00;;;;;;;;;;5014399;28;94540;-66
2022/04/21 12:49:49;;;;;;;10.65;1.70;;;;;;;;;;5016551;28;92675;-66
2022/04/21 12:52:35;;;;;;;11.45;1.70;;;;;;;;;;5003240;28;92406;-66
2022/04/21 12:55:03;;;;;;;4.57;1.98;;;;;;;;;;5001710;28;94402;-67
2022/04/21 12:57:29;;;;;;;7.55;1.80;;;;;;;;;;5013925;28;95047;-66
2022/04/21 12:59:55;;;;;;;20.17;1.92;;;;;;;;;;5014954;28;95543;-66
2022/04/21 13:02:22;;;;;;;6.20;1.67;;;;;;;;;;5012493;28;94141;-66
2022/04/21 13:04:48;;;;;;;4.32;1.52;;;;;;;;;;4995540;28;92653;-66
2022/04/21 13:07:15;;;;;;;2.22;1.95;;;;;;;;;;5000493;28;93182;-66
2022/04/21 13:09:41;;;;;;;4.60;1.80;;;;;;;;;;5008434;28;94040;-65
2022/04/21 13:12:08;;;;;;;7.45;2.50;;;;;;;;;;4999325;28;92610;-65
2022/04/21 13:14:34;;;;;;;7.30;2.28;;;;;;;;;;5001600;28;93257;-64
2022/04/21 13:17:00;;;;;;;9.35;2.22;;;;;;;;;;5005392;28;92573;-65
2022/04/21 13:19:27;;;;;;;8.57;2.70;;;;;;;;;;4998788;28;93176;-65
2022/04/21 13:22:02;;;;;;;5.70;2.30;;;;;;;;;;4991194;28;95744;-65
2022/04/21 13:24:29;;;;;;;10.05;2.47;;;;;;;;;;5009937;28;92575;-65
2022/04/21 13:26:57;;;;;;;9.18;2.65;;;;;;;;;;4994590;28;92925;-65
2022/04/21 13:29:24;;;;;;;10.07;2.60;;;;;;;;;;4996011;28;93635;-65
2022/04/21 13:34:36;;;;;;;3.08;2.30;;;;;;;;;;5009264;28;93394;-65
2022/04/21 13:37:03;;;;;;;7.20;2.65;;;;;;;;;;5004276;28;92470;-65
2022/04/21 13:39:30;;;;;;;5.32;2.30;;;;;;;;;;4997167;28;94293;-65
2022/04/21 13:41:59;;;;;;;8.05;2.60;;;;;;;;;;5008460;28;93699;-65
2022/04/21 13:44:25;;;;;;;6.28;2.70;;;;;;;;;;5014915;28;92464;-65
2022/04/21 13:47:11;;;;;;;7.35;2.33;;;;;;;;;;5012102;28;94924;-64
2022/04/21 13:49:40;;;;;;;4.78;2.55;;;;;;;;;;5005753;28;93204;-65
2022/04/21 13:52:07;;;;;;;8.35;2.80;;;;;;;;;;5015671;28;92575;-65
2022/04/21 13:54:33;;;;;;;20.45;2.90;;;;;;;;;;5004297;28;93850;-64
2022/04/21 13:57:00;;;;;;;5.55;2.60;;;;;;;;;;4998601;28;94563;-64
2022/04/21 13:59:26;;;;;;;6.10;2.78;;;;;;;;;;5002697;28;93015;-65
2022/04/21 14:01:53;;;;;;;3.30;2.72;;;;;;;;;;5001167;28;92946;-65
2022/04/21 14:04:20;;;;;;;10.38;2.80;;;;;;;;;;4994935;28;93093;-65
2022/04/21 14:06:46;;;;;;;4.57;2.50;;;;;;;;;;4994730;28;92307;-65
2022/04/21 14:09:12;;;;;;;5.70;2.85;;;;;;;;;;5000950;28;93466;-65
2022/04/21 14:11:39;;;;;;;7.70;2.78;;;;;;;;;;5012628;28;95236;-65
2022/04/21 14:14:05;;;;;;;5.28;3.05;;;;;;;;;;5013750;28;95637;-67
2022/04/21 14:16:32;;;;;;;7.05;2.95;;;;;;;;;;5011545;28;93173;-66
2022/04/21 14:19:02;;;;;;;6.57;3.28;;;;;;;;;;5004906;28;94021;-67
2022/04/21 14:21:28;;;;;;;7.97;3.05;;;;;;;;;;5001411;28;94461;-67
2022/04/21 14:23:54;;;;;;;5.78;3.47;;;;;;;;;;4995008;28;92640;-66
2022/04/21 14:26:21;;;;;;;7.95;3.00;;;;;;;;;;5006935;28;93213;-67
2022/04/21 14:28:47;;;;;;;6.22;3.47;;;;;;;;;;5015331;28;92329;-67
2022/04/21 14:31:14;;;;;;;17.00;2.90;;;;;;;;;;5001099;28;92663;-66
2022/04/21 14:33:41;;;;;;;5.95;2.92;;;;;;;;;;5011565;28;94168;-66
2022/04/21 14:36:08;;;;;;;6.93;2.83;;;;;;;;;;4996899;28;95831;-66
2022/04/21 14:44:04;;;;;;;6.07;2.70;;;;;;;;;;4993085;28;93590;-66
2022/04/21 14:46:31;;;;;;;10.00;3.30;;;;;;;;;;5007818;28;93656;-66
2022/04/21 14:49:18;;;;;;;5.30;3.05;;;;;;;;;;4994866;28;96019;-66
2022/04/21 14:51:44;;;;;;;4.32;3.20;;;;;;;;;;4994961;28;92368;-66
2022/04/21 14:54:11;;;;;;;8.05;3.38;;;;;;;;;;4998813;28;93223;-66
2022/04/21 14:56:38;;;;;;;6.88;3.17;;;;;;;;;;5010350;28;93239;-66
2022/04/21 14:59:05;;;;;;;5.53;3.00;;;;;;;;;;5009813;28;92842;-65
2022/04/21 15:01:31;;;;;;;7.07;3.28;;;;;;;;;;5009492;28;94832;-66
2022/04/21 15:03:57;;;;;;;7.28;2.90;;;;;;;;;;5012908;28;93408;-67
2022/04/21 15:06:24;;;;;;;3.55;2.25;;;;;;;;;;4994197;28;93183;-66
2022/04/21 15:08:50;;;;;;;17.35;2.88;;;;;;;;;;4994347;28;93200;-66
2022/04/21 15:11:16;;;;;;;5.00;2.60;;;;;;;;;;5003413;28;92390;-66
2022/04/21 15:13:43;;;;;;;7.97;2.88;;;;;;;;;;5014195;28;93152;-66
2022/04/21 15:16:10;;;;;;;12.50;3.00;;;;;;;;;;5012044;28;93413;-66
2022/04/21 15:18:36;;;;;;;4.43;2.60;;;;;;;;;;5012157;28;91743;-66
2022/04/21 15:21:03;;;;;;;6.05;3.00;;;;;;;;;;4994884;28;92437;-66
2022/04/21 15:23:31;;;;;;;10.23;3.10;;;;;;;;;;5000178;28;93313;-66
2022/04/21 15:25:58;;;;;;;8.25;2.63;;;;;;;;;;5003752;28;94908;-65
2022/04/21 15:28:24;;;;;;;6.28;2.65;;;;;;;;;;5014141;28;94341;-66
2022/04/21 15:30:51;;;;;;;5.55;2.70;;;;;;;;;;5014305;28;92544;-66
2022/04/21 15:33:17;;;;;;;15.85;3.13;;;;;;;;;;5011545;28;94223;-66
2022/04/21 15:35:44;;;;;;;11.38;2.60;;;;;;;;;;5010658;28;94528;-66
2022/04/21 15:38:15;;;;;;;5.60;2.90;;;;;;;;;;4996540;28;92569;-66
2022/04/21 15:40:41;;;;;;;;;;;;;;;;;;5011902;28;93914;-66